createdAt,value
2023-07-30T00:00:33.114Z,26.05
2023-07-30T00:03:35.437Z,26.01
2023-07-30T00:06:37.630Z,26.01
2023-07-30T00:09:40.240Z,25.96
2023-07-30T00:12:42.826Z,26.05
2023-07-30T00:15:48.172Z,26.05
2023-07-30T00:18:50.491Z,26.12
2023-07-30T00:21:52.681Z,26.12
2023-07-30T00:24:54.905Z,26.06
2023-07-30T00:27:57.182Z,26.07
2023-07-30T00:30:59.664Z,26.05
2023-07-30T00:34:02.150Z,25.93
2023-07-30T00:37:04.576Z,26.03
2023-07-30T00:40:07.494Z,25.87
2023-07-30T00:43:09.672Z,26.00
2023-07-30T00:46:12.646Z,25.95
2023-07-30T00:49:14.977Z,26.05
2023-07-30T00:52:18.565Z,26.06
2023-07-30T00:55:20.851Z,26.01
2023-07-30T00:58:24.186Z,26.21
2023-07-30T01:01:26.416Z,26.27
2023-07-30T01:04:28.732Z,26.28
2023-07-30T01:07:32.353Z,26.24
2023-07-30T01:10:35.299Z,26.37
2023-07-30T01:13:37.469Z,26.35
2023-07-30T01:16:39.803Z,26.41
2023-07-30T01:19:42.375Z,26.37
2023-07-30T01:22:44.624Z,26.41
2023-07-30T01:25:48.569Z,26.43
2023-07-30T01:28:52.975Z,26.47
2023-07-30T01:32:06.595Z,26.47
2023-07-30T01:35:10.098Z,26.43
2023-07-30T01:38:12.633Z,26.51
2023-07-30T01:41:14.858Z,26.45
2023-07-30T01:44:17.166Z,26.43
2023-07-30T01:47:19.324Z,26.39
2023-07-30T01:50:21.566Z,26.50
2023-07-30T01:53:24.020Z,26.43
2023-07-30T01:56:26.263Z,26.20
2023-07-30T01:59:28.421Z,26.24
2023-07-30T02:02:30.673Z,26.30
2023-07-30T02:05:32.987Z,26.37
2023-07-30T02:08:35.223Z,26.33
2023-07-30T02:11:37.609Z,26.37
2023-07-30T02:14:39.923Z,26.34
2023-07-30T02:17:42.235Z,26.28
2023-07-30T02:20:44.654Z,26.26
2023-07-30T02:23:46.870Z,26.29
2023-07-30T02:26:49.807Z,26.28
2023-07-30T02:29:53.319Z,26.22
2023-07-30T02:32:55.625Z,26.23
2023-07-30T02:35:58.207Z,26.20
2023-07-30T02:39:00.443Z,26.13
2023-07-30T02:42:03.200Z,25.98
2023-07-30T02:45:06.370Z,26.08
2023-07-30T02:48:08.640Z,26.03
2023-07-30T02:51:10.853Z,25.97
2023-07-30T02:54:13.040Z,26.00
2023-07-30T02:57:15.355Z,25.85
2023-07-30T03:00:17.934Z,26.01
2023-07-30T03:03:20.306Z,25.95
2023-07-30T03:06:22.542Z,25.89
2023-07-30T03:09:24.700Z,25.90
2023-07-30T03:12:26.949Z,25.84
2023-07-30T03:15:29.199Z,25.86
2023-07-30T03:18:31.578Z,26.02
2023-07-30T03:21:33.847Z,25.96
2023-07-30T03:24:36.987Z,26.04
2023-07-30T03:27:39.682Z,25.91
2023-07-30T03:30:42.056Z,25.99
2023-07-30T03:33:44.911Z,25.98
2023-07-30T03:36:47.253Z,25.94
2023-07-30T03:39:49.453Z,25.78
2023-07-30T03:42:51.762Z,25.89
2023-07-30T03:45:53.959Z,25.95
2023-07-30T03:48:56.157Z,25.94
2023-07-30T03:52:24.061Z,25.83
2023-07-30T03:55:26.247Z,25.85
2023-07-30T03:58:28.652Z,25.95
2023-07-30T04:01:31.616Z,25.93
2023-07-30T04:04:33.798Z,25.93
2023-07-30T04:07:36.662Z,25.93
2023-07-30T04:10:40.210Z,25.99
2023-07-30T04:13:43.317Z,26.06
2023-07-30T04:16:48.279Z,26.03
2023-07-30T04:19:50.636Z,26.12
2023-07-30T04:22:53.108Z,26.06
2023-07-30T04:25:55.387Z,26.05
2023-07-30T04:28:57.643Z,26.05
2023-07-30T04:31:59.873Z,26.10
2023-07-30T04:35:04.076Z,26.12
2023-07-30T04:38:06.628Z,26.04
2023-07-30T04:41:09.174Z,26.08
2023-07-30T04:44:17.294Z,26.08
2023-07-30T04:47:19.850Z,26.06
2023-07-30T04:50:22.641Z,26.13
2023-07-30T04:53:24.861Z,26.22
2023-07-30T04:56:27.973Z,26.34
2023-07-30T04:59:30.667Z,26.30
2023-07-30T05:02:32.967Z,26.26
2023-07-30T05:05:35.202Z,26.22
2023-07-30T05:08:37.380Z,26.30
2023-07-30T05:11:40.490Z,26.28
2023-07-30T05:14:42.880Z,26.34
2023-07-30T05:17:45.134Z,26.36
2023-07-30T05:20:47.670Z,26.45
2023-07-30T05:23:49.889Z,26.42
2023-07-30T05:26:52.065Z,26.44
2023-07-30T05:29:54.264Z,26.50
2023-07-30T05:32:56.576Z,26.42
2023-07-30T05:35:58.816Z,26.45
2023-07-30T05:39:00.969Z,26.59
2023-07-30T05:42:03.475Z,26.58
2023-07-30T05:45:06.196Z,26.54
2023-07-30T05:48:08.426Z,26.60
2023-07-30T05:51:10.746Z,26.63
2023-07-30T05:54:13.818Z,26.67
2023-07-30T05:57:16.010Z,26.61
2023-07-30T06:00:18.193Z,26.72
2023-07-30T06:03:20.583Z,26.68
2023-07-30T06:06:28.288Z,26.66
2023-07-30T06:09:30.457Z,26.72
2023-07-30T06:12:32.612Z,26.82
2023-07-30T06:15:35.412Z,26.80
2023-07-30T06:18:37.750Z,26.80
2023-07-30T06:21:40.258Z,26.81
2023-07-30T06:24:42.606Z,26.78
2023-07-30T06:27:44.831Z,26.83
2023-07-30T06:30:47.021Z,26.88
2023-07-30T06:33:49.194Z,26.78
2023-07-30T06:36:51.430Z,26.96
2023-07-30T06:39:53.635Z,26.92
2023-07-30T06:42:55.843Z,26.98
2023-07-30T06:45:58.186Z,27.02
2023-07-30T06:49:00.392Z,27.00
2023-07-30T06:52:02.571Z,27.04
2023-07-30T06:55:05.114Z,27.05
2023-07-30T06:58:07.444Z,27.14
2023-07-30T07:01:09.647Z,27.22
2023-07-30T07:04:11.916Z,27.23
2023-07-30T07:07:14.125Z,27.25
2023-07-30T07:10:16.446Z,27.28
2023-07-30T07:13:18.951Z,27.27
2023-07-30T07:16:21.209Z,27.25
2023-07-30T07:19:24.048Z,27.26
2023-07-30T07:22:26.202Z,27.28
2023-07-30T07:25:28.433Z,27.15
2023-07-30T07:28:30.615Z,27.12
2023-07-30T07:31:35.088Z,27.12
2023-07-30T07:34:38.428Z,27.11
2023-07-30T07:37:40.623Z,27.09
2023-07-30T07:40:42.867Z,27.04
2023-07-30T07:43:46.989Z,27.08
2023-07-30T07:46:49.215Z,27.04
2023-07-30T07:49:51.529Z,27.01
2023-07-30T07:52:53.784Z,26.99
2023-07-30T07:55:55.960Z,27.00
2023-07-30T07:58:58.986Z,26.98
2023-07-30T08:02:01.281Z,26.99
2023-07-30T08:05:04.362Z,27.07
2023-07-30T08:08:06.812Z,26.98
2023-07-30T08:11:09.695Z,26.90
2023-07-30T08:14:11.990Z,26.88
2023-07-30T08:17:16.376Z,26.96
2023-07-30T08:20:21.922Z,26.92
2023-07-30T08:23:24.076Z,26.79
2023-07-30T08:26:26.236Z,26.75
2023-07-30T08:29:28.413Z,26.66
2023-07-30T08:32:30.621Z,26.60
2023-07-30T08:35:32.910Z,26.62
2023-07-30T08:38:36.542Z,26.68
2023-07-30T08:41:41.778Z,26.64
2023-07-30T08:44:44.468Z,26.69
2023-07-30T08:47:48.254Z,26.63
2023-07-30T08:50:50.934Z,26.48
2023-07-30T08:53:53.423Z,26.47
2023-07-30T08:56:55.707Z,26.46
2023-07-30T09:00:04.451Z,26.39
2023-07-30T09:03:07.937Z,26.26
2023-07-30T09:06:10.102Z,26.27
2023-07-30T09:09:13.012Z,26.29
2023-07-30T09:12:16.945Z,26.41
2023-07-30T09:15:19.333Z,26.31
2023-07-30T09:18:21.518Z,26.27
2023-07-30T09:21:34.943Z,26.08
2023-07-30T09:24:37.584Z,26.29
2023-07-30T09:27:40.341Z,26.34
2023-07-30T09:30:42.683Z,26.43
2023-07-30T09:33:44.836Z,26.31
2023-07-30T09:36:50.002Z,26.29
2023-07-30T09:39:53.599Z,26.20
2023-07-30T09:42:58.982Z,26.21
2023-07-30T09:46:05.876Z,26.32
2023-07-30T09:49:09.766Z,26.30
2023-07-30T09:52:13.194Z,26.23
2023-07-30T09:55:16.619Z,26.29
2023-07-30T09:58:18.883Z,26.28
2023-07-30T10:01:28.375Z,26.25
2023-07-30T10:04:33.110Z,26.34
2023-07-30T10:07:35.591Z,26.34
2023-07-30T10:10:37.905Z,26.30
2023-07-30T10:13:42.444Z,26.41
2023-07-30T10:16:55.377Z,26.42
2023-07-30T10:19:57.776Z,26.37
2023-07-30T10:23:01.840Z,26.41
2023-07-30T10:26:11.595Z,26.36
2023-07-30T10:29:21.488Z,26.28
2023-07-30T10:32:23.926Z,26.24
2023-07-30T10:35:47.340Z,26.23
2023-07-30T10:38:49.891Z,26.19
2023-07-30T10:41:56.284Z,26.14
2023-07-30T10:44:59.010Z,26.27
2023-07-30T10:48:07.292Z,26.30
2023-07-30T10:51:18.583Z,26.39
2023-07-30T10:54:20.944Z,26.30
2023-07-30T10:57:23.236Z,26.32
2023-07-30T11:00:25.470Z,26.33
2023-07-30T11:03:28.426Z,26.37
2023-07-30T11:06:30.814Z,26.36
2023-07-30T11:09:33.514Z,26.54
2023-07-30T11:12:35.708Z,26.45
2023-07-30T11:15:45.160Z,26.47
2023-07-30T11:18:48.972Z,26.51
2023-07-30T11:21:54.761Z,26.65
2023-07-30T11:24:57.202Z,26.61
2023-07-30T11:28:01.493Z,26.63
2023-07-30T11:31:16.280Z,26.66
2023-07-30T11:34:19.749Z,26.53
2023-07-30T11:37:23.276Z,26.47
2023-07-30T11:40:25.552Z,26.56
2023-07-30T11:43:27.827Z,26.62
2023-07-30T11:46:32.098Z,26.57
2023-07-30T11:49:34.925Z,26.60
2023-07-30T11:52:37.406Z,26.68
2023-07-30T11:55:41.150Z,26.58
2023-07-30T11:58:43.605Z,26.62
2023-07-30T12:01:45.855Z,26.63
2023-07-30T12:04:58.619Z,26.57
2023-07-30T12:08:05.338Z,26.54
2023-07-30T12:11:09.280Z,26.54
2023-07-30T12:14:11.574Z,26.47
2023-07-30T12:17:15.289Z,26.45
2023-07-30T12:20:17.521Z,26.46
2023-07-30T12:23:21.938Z,26.41
2023-07-30T12:26:24.149Z,26.37
2023-07-30T12:29:26.876Z,26.43
2023-07-30T12:32:30.575Z,26.36
2023-07-30T12:35:33.581Z,26.47
2023-07-30T12:38:36.148Z,26.65
2023-07-30T12:41:38.635Z,26.63
2023-07-30T12:44:40.983Z,26.70
2023-07-30T12:47:43.370Z,26.81
2023-07-30T12:50:46.297Z,26.86
2023-07-30T12:53:48.508Z,26.88
2023-07-30T12:56:50.755Z,26.82
2023-07-30T12:59:53.064Z,26.90
2023-07-30T13:02:56.835Z,26.88
2023-07-30T13:05:59.391Z,26.64
2023-07-30T13:09:01.596Z,26.81
2023-07-30T13:12:03.978Z,26.81
2023-07-30T13:15:07.368Z,26.85
2023-07-30T13:18:09.559Z,26.89
2023-07-30T13:21:11.772Z,26.96
2023-07-30T13:24:13.999Z,26.94
2023-07-30T13:27:16.295Z,27.14
2023-07-30T13:30:18.587Z,27.02
2023-07-30T13:33:20.865Z,27.12
2023-07-30T13:36:23.347Z,27.13
2023-07-30T13:39:25.840Z,27.11
2023-07-30T13:42:27.986Z,27.23
2023-07-30T13:45:30.287Z,27.30
2023-07-30T13:48:32.520Z,27.40
2023-07-30T13:51:34.807Z,27.44
2023-07-30T13:54:36.979Z,27.41
2023-07-30T13:57:39.187Z,27.49
2023-07-30T14:00:42.496Z,27.41
2023-07-30T14:03:44.949Z,27.60
2023-07-30T14:06:47.190Z,28.15
2023-07-30T14:09:49.421Z,28.48
2023-07-30T14:12:51.684Z,28.92
2023-07-30T14:15:54.014Z,29.07
2023-07-30T14:18:56.181Z,29.42
2023-07-30T14:21:58.406Z,29.56
2023-07-30T14:25:00.587Z,29.77
2023-07-30T14:28:03.073Z,29.71
2023-07-30T14:31:05.338Z,29.98
2023-07-30T14:34:07.570Z,30.05
2023-07-30T14:37:12.679Z,30.13
2023-07-30T14:40:14.905Z,30.21
2023-07-30T14:43:17.098Z,30.23
2023-07-30T14:46:19.388Z,30.05
2023-07-30T14:49:21.613Z,30.12
2023-07-30T14:52:23.816Z,30.12
2023-07-30T14:55:26.336Z,30.19
2023-07-30T14:58:28.518Z,30.24
2023-07-30T15:01:31.164Z,30.23
2023-07-30T15:04:33.435Z,30.26
2023-07-30T15:07:35.860Z,30.34
2023-07-30T15:10:38.388Z,30.37
2023-07-30T15:13:41.211Z,30.33
2023-07-30T15:16:43.391Z,30.29
2023-07-30T15:19:47.883Z,30.30
2023-07-30T15:22:50.051Z,30.26
2023-07-30T15:25:53.937Z,30.40
2023-07-30T15:28:56.185Z,30.47
2023-07-30T15:31:58.490Z,30.37
2023-07-30T15:35:00.786Z,30.44
2023-07-30T15:38:06.945Z,30.49
2023-07-30T15:41:09.175Z,30.39
2023-07-30T15:44:11.383Z,30.44
2023-07-30T15:47:14.570Z,30.48
2023-07-30T15:50:17.202Z,30.30
2023-07-30T15:53:20.096Z,30.42
2023-07-30T15:56:22.615Z,30.30
2023-07-30T15:59:26.641Z,30.18
2023-07-30T16:02:30.467Z,30.19
2023-07-30T16:05:33.208Z,30.15
2023-07-30T16:08:39.320Z,29.96
2023-07-30T16:11:41.547Z,29.79
2023-07-30T16:14:45.240Z,29.69
2023-07-30T16:17:47.575Z,29.46
2023-07-30T16:20:49.843Z,29.50
2023-07-30T16:23:52.047Z,29.36
2023-07-30T16:26:54.319Z,29.28
2023-07-30T16:29:56.586Z,29.23
2023-07-30T16:32:58.847Z,28.96
2023-07-30T16:36:05.038Z,28.98
2023-07-30T16:39:07.911Z,28.89
2023-07-30T16:42:10.111Z,28.80
2023-07-30T16:45:12.335Z,28.67
2023-07-30T16:48:14.549Z,28.66
2023-07-30T16:51:17.700Z,28.45
2023-07-30T16:54:20.029Z,28.42
2023-07-30T16:57:22.203Z,28.36
2023-07-30T17:00:25.639Z,28.30
2023-07-30T17:03:27.993Z,28.17
2023-07-30T17:06:30.327Z,28.07
2023-07-30T17:09:33.226Z,28.02
2023-07-30T17:12:35.410Z,27.98
2023-07-30T17:15:37.606Z,27.86
2023-07-30T17:18:39.800Z,27.97
2023-07-30T17:21:41.999Z,27.99
2023-07-30T17:24:44.208Z,27.83
2023-07-30T17:27:46.366Z,27.84
2023-07-30T17:30:49.728Z,27.84
2023-07-30T17:33:52.016Z,27.89
2023-07-30T17:36:54.217Z,27.85
2023-07-30T17:39:56.429Z,27.63
2023-07-30T17:42:58.662Z,27.67
2023-07-30T17:46:04.255Z,27.66
2023-07-30T17:49:07.493Z,27.61
2023-07-30T17:52:12.373Z,27.59
2023-07-30T17:55:14.578Z,27.48
2023-07-30T17:58:16.840Z,27.50
2023-07-30T18:01:19.134Z,27.43
2023-07-30T18:04:21.569Z,27.47
2023-07-30T18:07:23.826Z,27.39
2023-07-30T18:10:25.988Z,27.31
2023-07-30T18:13:28.164Z,27.36
2023-07-30T18:16:30.524Z,27.19
2023-07-30T18:19:32.815Z,27.17
2023-07-30T18:22:34.975Z,27.11
2023-07-30T18:25:37.236Z,26.93
2023-07-30T18:28:39.480Z,27.08
2023-07-30T18:31:44.316Z,26.94
2023-07-30T18:34:46.532Z,26.96
2023-07-30T18:37:48.728Z,26.97
2023-07-30T18:40:50.910Z,26.87
2023-07-30T18:43:53.134Z,26.80
2023-07-30T18:47:01.642Z,26.80
2023-07-30T18:50:04.685Z,26.68
2023-07-30T18:53:06.922Z,26.65
2023-07-30T18:56:09.199Z,26.63
2023-07-30T18:59:11.384Z,26.71
2023-07-30T19:02:15.047Z,26.71
2023-07-30T19:05:17.439Z,26.62
2023-07-30T19:08:21.921Z,26.50
2023-07-30T19:11:24.170Z,26.38
2023-07-30T19:14:26.505Z,26.51
2023-07-30T19:17:28.799Z,26.54
2023-07-30T19:20:31.042Z,26.53
2023-07-30T19:23:33.288Z,26.36
2023-07-30T19:26:35.514Z,26.43
2023-07-30T19:29:37.730Z,26.39
2023-07-30T19:32:40.039Z,26.34
2023-07-30T19:35:51.155Z,26.29
2023-07-30T19:38:54.085Z,26.26
2023-07-30T19:41:56.273Z,26.27
2023-07-30T19:44:59.189Z,26.26
2023-07-30T19:48:01.708Z,26.15
2023-07-30T19:51:04.374Z,26.25
2023-07-30T19:54:06.611Z,26.13
2023-07-30T19:57:08.772Z,26.16
2023-07-30T20:00:11.561Z,26.09
2023-07-30T20:03:14.722Z,26.02
2023-07-30T20:06:17.352Z,26.15
2023-07-30T20:09:20.007Z,26.17
2023-07-30T20:12:22.205Z,26.11
2023-07-30T20:15:24.384Z,26.06
2023-07-30T20:18:29.940Z,26.01
2023-07-30T20:21:32.104Z,26.05
2023-07-30T20:24:34.287Z,26.03
2023-07-30T20:27:36.719Z,26.03
2023-07-30T20:30:38.955Z,25.98
2023-07-30T20:33:41.397Z,25.88
2023-07-30T20:36:43.676Z,26.05
2023-07-30T20:39:45.893Z,25.99
2023-07-30T20:42:49.114Z,25.88
2023-07-30T20:45:51.358Z,25.80
2023-07-30T20:48:54.072Z,25.78
2023-07-30T20:51:56.269Z,25.84
2023-07-30T20:54:58.505Z,25.78
2023-07-30T20:58:00.917Z,25.79
2023-07-30T21:01:03.283Z,25.69
2023-07-30T21:04:05.643Z,25.75
2023-07-30T21:07:07.856Z,25.76
2023-07-30T21:10:10.391Z,25.73
2023-07-30T21:13:12.600Z,25.68
2023-07-30T21:16:14.934Z,25.60
2023-07-30T21:19:17.181Z,25.69
2023-07-30T21:22:19.406Z,25.63
2023-07-30T21:25:21.708Z,25.49
2023-07-30T21:28:24.090Z,25.42
2023-07-30T21:31:26.413Z,25.52
2023-07-30T21:34:28.674Z,25.57
2023-07-30T21:37:31.267Z,25.60
2023-07-30T21:40:33.483Z,25.49
2023-07-30T21:43:35.684Z,25.55
2023-07-30T21:46:38.120Z,25.55
2023-07-30T21:49:40.737Z,25.48
2023-07-30T21:52:43.867Z,25.49
2023-07-30T21:55:46.112Z,25.45
2023-07-30T21:58:48.249Z,25.44
2023-07-30T22:01:50.454Z,25.46
2023-07-30T22:04:52.666Z,25.45
2023-07-30T22:07:54.904Z,25.37
2023-07-30T22:10:57.077Z,25.33
2023-07-30T22:13:59.288Z,25.32
2023-07-30T22:17:01.578Z,25.26
2023-07-30T22:20:04.060Z,25.31
2023-07-30T22:23:06.328Z,25.35
2023-07-30T22:26:08.513Z,25.38
2023-07-30T22:29:10.687Z,25.36
2023-07-30T22:32:12.837Z,25.17
2023-07-30T22:35:15.045Z,25.01
2023-07-30T22:38:17.245Z,25.09
2023-07-30T22:41:19.510Z,25.13
2023-07-30T22:44:21.662Z,25.20
2023-07-30T22:47:24.000Z,25.20
2023-07-30T22:50:26.390Z,25.06
2023-07-30T22:53:28.616Z,25.17
2023-07-30T22:56:33.688Z,25.18
2023-07-30T22:59:35.888Z,25.01
2023-07-30T23:02:38.192Z,24.97
2023-07-30T23:05:40.645Z,24.90
2023-07-30T23:08:43.002Z,25.00
2023-07-30T23:11:47.099Z,25.05
2023-07-30T23:14:49.306Z,24.94
2023-07-30T23:17:51.664Z,24.92
2023-07-30T23:20:54.039Z,24.88
2023-07-30T23:23:56.250Z,24.80
2023-07-30T23:26:58.490Z,24.83
2023-07-30T23:30:00.689Z,24.71
2023-07-30T23:33:03.153Z,24.76
2023-07-30T23:36:09.420Z,24.78
2023-07-30T23:39:11.609Z,24.96
2023-07-30T23:42:13.808Z,24.83
2023-07-30T23:45:18.535Z,24.74
2023-07-30T23:48:21.230Z,24.80
2023-07-30T23:51:23.423Z,24.83
2023-07-30T23:54:25.564Z,24.71
2023-07-30T23:57:27.770Z,24.86
